Time;durP1;ratioP1;P1;durP2;ratioP2;P2;SDS_P1;SDS_P2;PMS_P1;PMS_P2;Temp;Humidity;BMP_temperature;BMP_pressure;BME280_temperature;BME280_humidity;BME280_pressure;Samples;Min_cycle;Max_cycle;Signal;HPM_P1;HPM_P2
2022/04/18 00:01:42;;;;;;;10.85;5.05;;;5.80;99.90;;;;;;5088570;28;20032;-42
2022/04/18 00:04:07;;;;;;;9.18;5.32;;;5.80;99.90;;;;;;5088318;28;20032;-42
2022/04/18 00:06:36;;;;;;;11.00;6.05;;;5.80;99.90;;;;;;5087443;28;20579;-42
2022/04/18 00:09:02;;;;;;;9.25;5.57;;;5.70;99.90;;;;;;5089073;28;20035;-42
2022/04/18 00:11:28;;;;;;;9.50;5.40;;;5.60;99.90;;;;;;5089010;28;20038;-41
2022/04/18 00:13:53;;;;;;;9.95;5.50;;;5.60;99.90;;;;;;5088430;28;20016;-42
2022/04/18 00:16:19;;;;;;;8.75;5.05;;;5.60;99.90;;;;;;5088405;28;20024;-41
2022/04/18 00:18:44;;;;;;;9.80;5.63;;;5.50;99.90;;;;;;5080263;28;20032;-42
2022/04/18 00:21:10;;;;;;;8.07;4.95;;;5.50;99.90;;;;;;5088834;28;20069;-42
2022/04/18 00:23:36;;;;;;;9.00;5.57;;;5.50;99.90;;;;;;5088142;28;20060;-41
2022/04/18 00:26:02;;;;;;;7.80;5.20;;;5.40;99.90;;;;;;5088605;28;20091;-43
2022/04/18 00:28:28;;;;;;;12.05;5.97;;;5.40;99.90;;;;;;5088636;28;20111;-42
2022/04/18 00:30:54;;;;;;;10.90;5.80;;;5.40;99.90;;;;;;5088324;28;20430;-42
2022/04/18 00:33:19;;;;;;;8.05;5.20;;;5.40;99.90;;;;;;5087949;28;20055;-42
2022/04/18 00:35:45;;;;;;;8.13;4.95;;;5.30;99.90;;;;;;5088610;28;20111;-43
2022/04/18 00:38:10;;;;;;;9.50;5.68;;;5.20;99.90;;;;;;5088573;28;20477;-44
2022/04/18 00:40:36;;;;;;;8.43;5.38;;;5.20;99.90;;;;;;5088587;28;20339;-42
2022/04/18 00:43:06;;;;;;;11.68;6.32;;;5.10;99.90;;;;;;5086576;28;20443;-41
2022/04/18 00:45:32;;;;;;;11.57;5.63;;;5.10;99.90;;;;;;5088119;28;20025;-41
2022/04/18 00:47:58;;;;;;;8.93;5.30;;;5.10;99.90;;;;;;5068215;28;20066;-41
2022/04/18 00:50:25;;;;;;;9.57;4.75;;;5.00;99.90;;;;;;5085735;28;20089;-42
2022/04/18 00:52:53;;;;;;;11.93;5.40;;;5.00;99.90;;;;;;5092084;28;20732;-41
2022/04/18 00:55:19;;;;;;;9.77;4.93;;;5.00;99.90;;;;;;5092711;28;20107;-42
2022/04/18 00:57:47;;;;;;;7.75;4.60;;;5.00;99.90;;;;;;5092372;28;20024;-42
2022/04/18 01:00:13;;;;;;;7.53;5.32;;;5.00;99.90;;;;;;5092491;28;20123;-41
2022/04/18 01:02:38;;;;;;;13.30;5.63;;;5.00;99.90;;;;;;5092094;28;20107;-42
2022/04/18 01:05:04;;;;;;;10.60;4.88;;;5.00;99.90;;;;;;5090564;28;20572;-42
2022/04/18 01:07:31;;;;;;;10.27;5.80;;;5.00;99.90;;;;;;5092235;28;20267;-42
2022/04/18 01:09:56;;;;;;;7.53;4.72;;;4.90;99.90;;;;;;5092205;28;20072;-42
2022/04/18 01:12:22;;;;;;;10.80;5.30;;;4.90;99.90;;;;;;5092313;28;20453;-41
2022/04/18 01:14:48;;;;;;;7.35;5.05;;;4.90;99.90;;;;;;5091956;28;20085;-41
2022/04/18 01:17:14;;;;;;;7.82;5.00;;;4.90;99.90;;;;;;5076280;28;20020;-41
2022/04/18 01:19:40;;;;;;;6.90;4.13;;;4.80;99.90;;;;;;5083470;28;20027;-42
2022/04/18 01:22:09;;;;;;;9.40;5.35;;;4.70;99.90;;;;;;5092567;28;20027;-41
2022/04/18 01:30:04;;;;;;;9.18;5.43;;;4.60;99.90;;;;;;5073006;28;20507;-42
2022/04/18 01:32:29;;;;;;;10.02;5.45;;;4.60;99.90;;;;;;5071095;28;20066;-41
2022/04/18 01:34:57;;;;;;;9.13;5.35;;;4.50;99.90;;;;;;5064080;28;20029;-45
2022/04/18 01:37:22;;;;;;;9.10;5.32;;;4.40;99.90;;;;;;5060300;28;20013;-43
2022/04/18 01:39:48;;;;;;;7.57;5.38;;;4.40;99.90;;;;;;5061817;28;20021;-41
2022/04/18 01:42:13;;;;;;;7.95;5.00;;;4.40;99.90;;;;;;5059491;28;20024;-44
2022/04/18 01:44:39;;;;;;;10.45;6.03;;;4.40;99.90;;;;;;5061025;28;20103;-42
2022/04/18 01:47:05;;;;;;;10.30;5.57;;;4.40;99.90;;;;;;5063692;28;20387;-42
2022/04/18 01:49:30;;;;;;;10.05;5.20;;;4.30;99.90;;;;;;5067694;28;20094;-43
2022/04/18 01:51:56;;;;;;;9.38;5.68;;;4.20;99.90;;;;;;5061513;28;20274;-42
2022/04/18 01:54:22;;;;;;;7.75;5.28;;;4.20;99.90;;;;;;5061056;28;20039;-42
2022/04/18 01:56:48;;;;;;;9.75;5.47;;;4.20;99.90;;;;;;5061111;28;20029;-43
2022/04/18 01:59:14;;;;;;;7.97;5.35;;;4.10;99.90;;;;;;5059580;28;20371;-41
2022/04/18 02:01:39;;;;;;;10.30;5.45;;;4.10;99.90;;;;;;5058294;28;20161;-41
2022/04/18 02:04:05;;;;;;;11.23;5.40;;;4.10;99.90;;;;;;5060763;28;20025;-42
2022/04/18 02:06:31;;;;;;;10.52;6.15;;;4.10;99.90;;;;;;5059599;28;20025;-42
2022/04/18 02:08:56;;;;;;;7.80;5.18;;;4.10;99.90;;;;;;5061909;28;20480;-42
2022/04/18 02:11:22;;;;;;;11.10;6.47;;;4.20;99.90;;;;;;5060081;28;20121;-41
2022/04/18 02:13:47;;;;;;;11.85;6.80;;;4.20;99.90;;;;;;5059352;28;20024;-41
2022/04/18 02:16:13;;;;;;;10.77;6.35;;;4.20;99.90;;;;;;5058079;28;20048;-41
2022/04/18 02:18:38;;;;;;;9.13;6.30;;;4.20;99.90;;;;;;5065371;28;20137;-41
2022/04/18 02:21:03;;;;;;;12.35;6.13;;;4.20;99.90;;;;;;5060743;28;20304;-40
2022/04/18 02:23:29;;;;;;;10.82;6.20;;;4.10;99.90;;;;;;5060106;28;20096;-41
2022/04/18 02:25:54;;;;;;;9.02;6.38;;;4.20;99.90;;;;;;5058972;28;20025;-43
2022/04/18 02:28:20;;;;;;;8.30;5.75;;;4.10;99.90;;;;;;5060813;28;20509;-43
2022/04/18 02:30:46;;;;;;;11.18;6.53;;;4.20;99.90;;;;;;5058322;28;20055;-41
2022/04/18 02:33:11;;;;;;;12.02;7.68;;;4.10;99.90;;;;;;5058663;28;20025;-40
2022/04/18 02:35:37;;;;;;;13.90;6.55;;;4.20;99.90;;;;;;5068415;28;20031;-41
2022/04/18 02:38:03;;;;;;;12.52;7.55;;;4.10;99.90;;;;;;5070470;28;20470;-42
2022/04/18 02:40:28;;;;;;;10.23;5.93;;;4.10;99.90;;;;;;5069053;28;20120;-41
2022/04/18 02:42:54;;;;;;;12.73;7.38;;;4.10;99.90;;;;;;5069670;28;20089;-41
2022/04/18 02:45:19;;;;;;;11.88;7.03;;;4.00;99.90;;;;;;5070165;28;20496;-42
2022/04/18 02:47:46;;;;;;;8.30;5.55;;;4.00;99.90;;;;;;5070587;28;20028;-42
2022/04/18 02:50:11;;;;;;;13.07;7.05;;;4.00;99.90;;;;;;5084208;28;20055;-43
2022/04/18 02:52:37;;;;;;;9.48;6.20;;;4.00;99.90;;;;;;5090289;28;20047;-44
2022/04/18 02:55:04;;;;;;;9.73;5.85;;;3.90;99.90;;;;;;5089542;28;20036;-43
2022/04/18 02:57:30;;;;;;;13.23;7.00;;;3.90;99.90;;;;;;5090201;28;20397;-42
2022/04/18 02:59:55;;;;;;;8.93;6.60;;;3.80;99.90;;;;;;5090014;28;20024;-41
2022/04/18 03:02:21;;;;;;;9.70;6.80;;;3.80;99.90;;;;;;5088376;28;20028;-42
2022/04/18 03:04:46;;;;;;;13.93;7.65;;;3.80;99.90;;;;;;5089492;28;20081;-43
2022/04/18 03:07:13;;;;;;;12.43;8.02;;;3.80;99.90;;;;;;5089850;28;20027;-43
2022/04/18 03:09:38;;;;;;;14.25;9.00;;;3.80;99.90;;;;;;5088484;28;20043;-42
2022/04/18 03:12:06;;;;;;;17.45;8.73;;;3.80;99.90;;;;;;5090250;28;20631;-43
2022/04/18 03:14:32;;;;;;;16.33;9.60;;;3.80;99.90;;;;;;5089080;28;20484;-44
2022/04/18 03:16:58;;;;;;;13.10;8.70;;;3.80;99.90;;;;;;5074583;28;20058;-43
2022/04/18 03:19:24;;;;;;;13.43;8.32;;;3.70;99.90;;;;;;5081547;28;20031;-42
2022/04/18 03:21:50;;;;;;;17.50;9.55;;;3.70;99.90;;;;;;5089566;28;20028;-43
2022/04/18 03:24:16;;;;;;;14.00;8.23;;;3.70;99.90;;;;;;5089058;28;20047;-42
2022/04/18 03:26:41;;;;;;;17.67;10.98;;;3.70;99.90;;;;;;5089481;28;20412;-41
2022/04/18 03:29:07;;;;;;;14.20;9.48;;;3.70;99.90;;;;;;5089608;28;20032;-42
2022/04/18 03:31:32;;;;;;;14.57;8.68;;;3.70;99.90;;;;;;5089189;28;20228;-42
2022/04/18 03:33:59;;;;;;;15.63;9.52;;;3.70;99.90;;;;;;5087530;28;20040;-40
2022/04/18 03:41:53;;;;;;;14.57;8.30;;;3.60;99.90;;;;;;5089296;28;20154;-40
2022/04/18 03:44:18;;;;;;;16.00;8.35;;;3.50;99.90;;;;;;5088827;28;20115;-40
2022/04/18 03:46:44;;;;;;;14.70;8.88;;;3.60;99.90;;;;;;5075209;28;20043;-40
2022/04/18 03:49:10;;;;;;;13.05;8.32;;;3.50;99.90;;;;;;5080648;28;20032;-41
2022/04/18 03:51:36;;;;;;;19.63;8.75;;;3.50;99.90;;;;;;5089099;28;20635;-41
2022/04/18 03:54:01;;;;;;;12.40;9.02;;;3.50;99.90;;;;;;5088392;28;20043;-42
2022/04/18 03:56:27;;;;;;;13.68;8.80;;;3.40;99.90;;;;;;5089140;28;20035;-41
2022/04/18 03:58:52;;;;;;;11.60;8.30;;;3.40;99.90;;;;;;5088985;28;20077;-42
2022/04/18 04:01:18;;;;;;;11.73;8.18;;;3.50;99.90;;;;;;5088590;28;20032;-41
2022/04/18 04:03:43;;;;;;;15.50;8.70;;;3.40;99.90;;;;;;5088533;28;20132;-42
2022/04/18 04:06:08;;;;;;;15.02;8.95;;;3.30;99.90;;;;;;5087718;28;20051;-41
2022/04/18 04:08:34;;;;;;;15.07;8.45;;;3.30;99.90;;;;;;5088912;28;20546;-41
2022/04/18 04:11:00;;;;;;;13.55;7.65;;;3.20;99.90;;;;;;5088784;28;20462;-41
2022/04/18 04:13:25;;;;;;;14.98;8.55;;;3.20;99.90;;;;;;5088152;28;20031;-42
2022/04/18 04:15:51;;;;;;;15.80;9.15;;;3.30;99.90;;;;;;5087296;28;20247;-41
2022/04/18 04:18:16;;;;;;;15.40;8.40;;;3.30;99.90;;;;;;5071173;28;20021;-41
2022/04/18 04:20:42;;;;;;;14.35;8.40;;;3.20;99.90;;;;;;5087179;28;20028;-41
2022/04/18 04:23:08;;;;;;;14.07;8.65;;;3.20;99.90;;;;;;5087954;28;20031;-41
2022/04/18 04:25:33;;;;;;;13.15;8.85;;;3.20;99.90;;;;;;5088006;28;20031;-41
2022/04/18 04:27:59;;;;;;;13.70;8.43;;;3.20;99.90;;;;;;5088817;28;20036;-41
2022/04/18 04:30:24;;;;;;;16.48;8.63;;;3.20;99.90;;;;;;5088850;28;20028;-41
2022/04/18 04:32:50;;;;;;;15.68;9.40;;;3.20;99.90;;;;;;5088362;28;20144;-42
2022/04/18 04:35:19;;;;;;;12.60;8.15;;;3.20;99.90;;;;;;5088444;28;20069;-42
2022/04/18 04:37:44;;;;;;;11.70;8.45;;;3.20;99.90;;;;;;5088441;28;20047;-42
2022/04/18 04:40:11;;;;;;;14.68;8.60;;;3.20;99.90;;;;;;5088632;28;20032;-41
2022/04/18 04:42:38;;;;;;;11.88;8.35;;;3.20;99.90;;;;;;5088886;28;20027;-43
2022/04/18 04:45:04;;;;;;;15.05;9.05;;;3.30;99.90;;;;;;5077314;28;20182;-43
2022/04/18 04:47:29;;;;;;;15.30;8.68;;;3.20;99.90;;;;;;5061324;28;20013;-42
2022/04/18 04:49:55;;;;;;;15.18;9.93;;;3.20;99.90;;;;;;5067013;28;20028;-42
2022/04/18 04:52:20;;;;;;;14.43;8.80;;;3.20;99.90;;;;;;5056278;28;20032;-40
2022/04/18 04:54:46;;;;;;;17.17;9.85;;;3.20;99.90;;;;;;5056819;28;20039;-40
2022/04/18 04:57:11;;;;;;;14.40;8.90;;;3.20;99.90;;;;;;5058753;28;20079;-41
2022/04/18 04:59:37;;;;;;;14.95;8.43;;;3.20;99.90;;;;;;5056601;28;20078;-40
2022/04/18 05:02:03;;;;;;;13.73;8.40;;;3.20;99.90;;;;;;5058312;28;20277;-40
2022/04/18 05:04:28;;;;;;;18.10;8.77;;;3.20;99.90;;;;;;5055448;28;20032;-40
2022/04/18 05:06:54;;;;;;;14.68;9.43;;;3.30;99.90;;;;;;5058221;28;20095;-40
2022/04/18 05:09:19;;;;;;;19.48;10.15;;;3.30;99.90;;;;;;5056776;28;20096;-41
2022/04/18 05:11:46;;;;;;;15.35;9.27;;;3.30;99.90;;;;;;5065916;28;20112;-40
2022/04/18 05:14:13;;;;;;;16.60;9.73;;;3.30;99.90;;;;;;5067425;28;20127;-40
2022/04/18 05:16:39;;;;;;;18.80;10.20;;;3.40;99.90;;;;;;5061735;28;20079;-39
2022/04/18 05:19:05;;;;;;;19.35;10.70;;;3.40;99.90;;;;;;5065790;28;20397;-40
2022/04/18 05:21:31;;;;;;;15.63;9.10;;;3.50;99.90;;;;;;5056621;28;20023;-41
2022/04/18 05:23:56;;;;;;;11.98;8.15;;;3.50;99.90;;;;;;5058734;28;20074;-40
2022/04/18 05:26:22;;;;;;;16.10;9.23;;;3.50;99.90;;;;;;5055946;28;20016;-40
2022/04/18 05:28:47;;;;;;;16.48;8.70;;;3.60;99.90;;;;;;5058621;28;20032;-40
2022/04/18 05:31:13;;;;;;;15.95;9.20;;;3.60;99.90;;;;;;5057765;28;20032;-42
2022/04/18 05:33:39;;;;;;;12.93;7.72;;;3.60;99.90;;;;;;5058210;28;20485;-43
2022/04/18 05:36:04;;;;;;;12.93;8.13;;;3.70;99.90;;;;;;5056961;28;20029;-42
2022/04/18 05:38:32;;;;;;;11.25;7.72;;;3.70;99.90;;;;;;5058676;28;20017;-41
2022/04/18 05:40:58;;;;;;;14.90;9.27;;;3.80;99.90;;;;;;5061815;28;20017;-42
2022/04/18 05:43:23;;;;;;;12.77;9.00;;;3.80;99.90;;;;;;5058709;28;20051;-42
2022/04/18 05:45:50;;;;;;;14.07;7.80;;;3.80;99.90;;;;;;5060343;28;20040;-44
2022/04/18 05:48:16;;;;;;;11.98;8.05;;;3.90;99.90;;;;;;5062512;28;20020;-41
2022/04/18 05:50:45;;;;;;;10.68;7.78;;;3.90;99.90;;;;;;5062716;28;20025;-42
2022/04/18 05:53:12;;;;;;;12.23;7.78;;;4.00;99.90;;;;;;5059332;28;20031;-41
2022/04/18 05:55:37;;;;;;;14.02;8.32;;;4.10;99.90;;;;;;5051015;28;20506;-41
2022/04/18 05:58:04;;;;;;;11.77;8.05;;;4.20;99.90;;;;;;5051067;28;20025;-42
2022/04/18 06:00:32;;;;;;;10.77;7.32;;;4.30;99.90;;;;;;5054855;28;20132;-41
2022/04/18 06:02:58;;;;;;;17.25;7.90;;;4.40;99.90;;;;;;5057759;28;20029;-42
2022/04/18 06:05:23;;;;;;;14.40;7.93;;;4.50;99.90;;;;;;5061274;28;20031;-44
2022/04/18 06:07:49;;;;;;;11.80;7.90;;;4.50;99.90;;;;;;5061266;28;20810;-41
2022/04/18 06:10:14;;;;;;;14.10;8.80;;;4.60;99.90;;;;;;5061330;28;20021;-42
2022/04/18 06:12:40;;;;;;;13.60;8.55;;;4.70;99.90;;;;;;5059978;28;20390;-43
2022/04/18 06:15:05;;;;;;;13.38;7.85;;;4.80;99.90;;;;;;5056999;28;20028;-41
2022/04/18 06:17:31;;;;;;;14.52;9.25;;;4.90;99.90;;;;;;5073118;28;20493;-41
2022/04/18 06:19:56;;;;;;;12.98;7.95;;;5.00;99.90;;;;;;5082733;28;20056;-43
2022/04/18 06:22:22;;;;;;;13.32;8.40;;;5.10;99.90;;;;;;5090696;28;20071;-43
2022/04/18 06:24:48;;;;;;;10.95;7.82;;;5.10;99.90;;;;;;5090036;28;20047;-41
2022/04/18 06:27:13;;;;;;;17.00;8.25;;;5.20;99.90;;;;;;5090647;28;20078;-42
2022/04/18 06:29:39;;;;;;;13.13;9.25;;;5.20;99.90;;;;;;5090555;28;20465;-41
2022/04/18 06:32:05;;;;;;;15.07;8.48;;;5.30;99.90;;;;;;5078650;28;20017;-41
2022/04/18 06:34:30;;;;;;;13.38;8.15;;;5.40;99.90;;;;;;5056040;28;20021;-42
2022/04/18 06:36:56;;;;;;;13.95;8.30;;;5.40;99.90;;;;;;5056111;28;20035;-42
2022/04/18 06:39:22;;;;;;;13.98;8.63;;;5.50;99.90;;;;;;5053174;28;20075;-41
2022/04/18 06:41:47;;;;;;;14.38;8.68;;;5.70;99.90;;;;;;5058657;28;20146;-42
2022/04/18 06:44:13;;;;;;;15.52;8.63;;;5.70;99.90;;;;;;5055872;28;20587;-42
2022/04/18 06:46:38;;;;;;;12.57;7.60;;;5.80;99.90;;;;;;5059901;28;20082;-40
2022/04/18 06:49:04;;;;;;;13.35;9.30;;;5.90;99.90;;;;;;5080825;28;20012;-40
2022/04/18 06:51:29;;;;;;;13.85;8.30;;;6.00;99.90;;;;;;5082872;28;20060;-40
2022/04/18 06:53:54;;;;;;;10.88;8.10;;;6.10;99.90;;;;;;5067087;28;20061;-41
2022/04/18 06:59:04;;;;;;;13.88;8.27;;;6.30;99.90;;;;;;5069131;28;20150;-40
2022/04/18 07:01:29;;;;;;;13.73;8.40;;;6.40;99.90;;;;;;5067509;28;20032;-41
2022/04/18 07:03:55;;;;;;;15.23;8.45;;;6.60;99.90;;;;;;5068606;28;20402;-40
2022/04/18 07:06:20;;;;;;;11.18;7.90;;;6.60;99.90;;;;;;5068141;28;20025;-40
2022/04/18 07:08:46;;;;;;;14.05;8.27;;;6.80;99.90;;;;;;5069539;28;20104;-41
2022/04/18 07:11:12;;;;;;;12.95;8.07;;;6.90;99.90;;;;;;5069390;28;20020;-41
2022/04/18 07:13:38;;;;;;;15.43;8.88;;;7.00;99.90;;;;;;5068833;28;20082;-40
2022/04/18 07:16:06;;;;;;;12.93;8.43;;;7.20;99.90;;;;;;5054872;28;20033;-41
2022/04/18 07:18:32;;;;;;;11.55;7.82;;;7.40;99.90;;;;;;5074242;28;20016;-42
2022/04/18 07:20:58;;;;;;;16.20;8.90;;;7.50;99.90;;;;;;5089708;28;20103;-42
2022/04/18 07:23:23;;;;;;;17.10;10.00;;;7.70;99.90;;;;;;5088818;28;20058;-40
2022/04/18 07:25:48;;;;;;;17.25;9.23;;;7.80;99.90;;;;;;5079556;28;20021;-41
2022/04/18 07:28:14;;;;;;;12.95;8.00;;;8.00;99.90;;;;;;5049194;28;20032;-41
2022/04/18 07:30:39;;;;;;;14.45;8.93;;;8.20;99.90;;;;;;5049128;28;20268;-41
2022/04/18 07:33:05;;;;;;;14.15;8.13;;;8.30;99.90;;;;;;5048154;28;20506;-42
2022/04/18 07:35:30;;;;;;;13.52;8.02;;;8.50;99.90;;;;;;5055794;28;20116;-41
2022/04/18 07:40:42;;;;;;;11.45;7.35;;;8.90;99.90;;;;;;5059608;28;20492;-43
2022/04/18 07:43:08;;;;;;;11.45;7.32;;;9.20;99.90;;;;;;5057503;28;20290;-41
2022/04/18 07:45:36;;;;;;;12.02;7.30;;;9.50;99.90;;;;;;5053305;28;20025;-42
2022/04/18 07:48:01;;;;;;;14.10;7.40;;;9.80;99.90;;;;;;5069002;28;20391;-43
2022/04/18 07:51:31;;;;;;;12.30;7.25;;;10.10;99.90;;;;;;5084791;28;20027;-40
2022/04/18 07:53:13;;;;;;;9.82;6.03;;;10.50;96.90;;;;;;5087993;28;20032;-41
2022/04/18 07:55:38;;;;;;;12.52;6.55;;;11.00;96.30;;;;;;5074101;28;20039;-41
2022/04/18 07:58:04;;;;;;;10.25;5.75;;;11.80;92.80;;;;;;5066703;28;20029;-42
2022/04/18 08:00:29;;;;;;;8.35;5.25;;;13.20;88.00;;;;;;5067659;28;20111;-41
2022/04/18 08:02:55;;;;;;;6.75;4.57;;;14.70;79.40;;;;;;5067340;28;20119;-42
2022/04/18 08:05:20;;;;;;;7.10;4.32;;;16.00;74.40;;;;;;5068319;28;20024;-41
2022/04/18 08:07:46;;;;;;;5.40;3.72;;;17.20;69.90;;;;;;5068794;28;20052;-42
2022/04/18 08:10:11;;;;;;;9.15;5.60;;;18.60;64.00;;;;;;5068681;28;20069;-42
2022/04/18 08:12:37;;;;;;;7.40;4.80;;;20.10;54.70;;;;;;5068547;28;20478;-41
2022/04/18 08:15:02;;;;;;;6.88;5.18;;;20.60;52.40;;;;;;5068258;28;20073;-42
2022/04/18 08:17:28;;;;;;;10.68;4.80;;;21.40;48.90;;;;;;5072259;28;20032;-42
2022/04/18 08:19:54;;;;;;;5.18;3.92;;;22.00;48.30;;;;;;5080367;28;20099;-42
2022/04/18 08:22:20;;;;;;;7.80;4.85;;;23.00;48.60;;;;;;5088663;28;20107;-43
2022/04/18 08:24:46;;;;;;;7.05;5.03;;;23.60;45.60;;;;;;5088402;28;20557;-41
2022/04/18 08:27:12;;;;;;;5.43;4.90;;;24.30;44.30;;;;;;5089035;28;20556;-41
2022/04/18 08:29:37;;;;;;;7.15;4.55;;;25.00;42.90;;;;;;5088807;28;20039;-42
2022/04/18 08:32:04;;;;;;;5.47;4.60;;;25.10;40.90;;;;;;5088419;28;20100;-42
2022/04/18 08:34:30;;;;;;;5.05;4.28;;;25.80;40.90;;;;;;5088030;28;20516;-42
2022/04/18 08:36:55;;;;;;;7.28;5.05;;;26.20;40.20;;;;;;5088634;28;20059;-43
2022/04/18 08:39:21;;;;;;;5.97;4.97;;;25.80;40.60;;;;;;5088597;28;20099;-41
2022/04/18 08:41:51;;;;;;;5.45;4.88;;;25.40;39.90;;;;;;5088444;28;20099;-43
2022/04/18 08:44:18;;;;;;;5.13;4.10;;;25.60;39.80;;;;;;5086812;28;20432;-44
2022/04/18 08:46:45;;;;;;;6.28;4.70;;;26.30;40.70;;;;;;5078821;28;20025;-42
2022/04/18 08:54:44;;;;;;;7.05;5.85;;;26.00;40.00;;;;;;5088052;28;20031;-42
2022/04/18 08:57:09;;;;;;;5.88;5.13;;;25.60;39.20;;;;;;5088496;28;20111;-42
2022/04/18 08:59:35;;;;;;;7.03;4.55;;;25.30;40.20;;;;;;5086940;28;20139;-42
2022/04/18 09:02:02;;;;;;;4.05;3.67;;;25.80;40.70;;;;;;5086779;28;20047;-43
2022/04/18 09:04:28;;;;;;;7.80;4.10;;;26.50;39.80;;;;;;5086310;28;20477;-44
2022/04/18 09:06:53;;;;;;;5.22;4.38;;;28.10;38.20;;;;;;5088207;28;20070;-44
2022/04/18 09:09:27;;;;;;;5.18;3.95;;;28.70;36.30;;;;;;5088570;28;20477;-42
2022/04/18 09:11:52;;;;;;;6.00;4.65;;;27.80;38.80;;;;;;5090873;28;20048;-42
2022/04/18 09:14:19;;;;;;;4.57;4.05;;;27.60;38.50;;;;;;5091485;28;20464;-42
2022/04/18 09:16:45;;;;;;;5.75;4.45;;;27.90;38.00;;;;;;5083634;28;20048;-45
2022/04/18 09:19:16;;;;;;;8.38;5.32;;;28.20;36.90;;;;;;5083569;28;20062;-43
2022/04/18 09:21:55;;;;;;;5.55;4.95;;;28.40;36.40;;;;;;5091995;28;20081;-43
2022/04/18 09:24:34;;;;;;;6.50;4.90;;;28.10;37.00;;;;;;5091776;28;20020;-44
2022/04/18 09:27:18;;;;;;;6.05;5.45;;;28.50;36.50;;;;;;5092198;28;20516;-45
2022/04/18 09:29:44;;;;;;;5.45;4.50;;;29.10;35.40;;;;;;5091748;28;20066;-42
2022/04/18 09:32:13;;;;;;;5.63;4.55;;;28.40;36.10;;;;;;5091486;28;20031;-46
2022/04/18 09:34:40;;;;;;;6.40;5.10;;;27.70;37.80;;;;;;5091110;28;20035;-43
2022/04/18 09:37:17;;;;;;;5.93;5.32;;;27.90;36.70;;;;;;5091630;28;20047;-42
2022/04/18 09:39:54;;;;;;;5.47;4.68;;;28.30;35.10;;;;;;5091762;28;20034;-42
2022/04/18 09:42:22;;;;;;;6.25;4.70;;;27.70;34.80;;;;;;5091534;28;20031;-43
2022/04/18 09:44:48;;;;;;;4.97;4.30;;;28.20;34.80;;;;;;5090831;28;20055;-42
2022/04/18 09:47:17;;;;;;;5.85;4.43;;;27.50;38.30;;;;;;5084099;28;20488;-42
2022/04/18 09:49:43;;;;;;;;;;;27.40;38.00;;;;;;5083402;28;20296;-43
2022/04/18 09:52:27;;;;;;;3.95;3.55;;;28.10;37.40;;;;;;5090168;28;20410;-43
2022/04/18 09:54:55;;;;;;;4.95;4.45;;;28.50;35.70;;;;;;5090644;28;20036;-47
2022/04/18 09:57:25;;;;;;;5.35;3.70;;;28.90;35.40;;;;;;5091317;28;20028;-42
2022/04/18 09:59:52;;;;;;;4.88;4.47;;;28.60;35.90;;;;;;5091383;28;20039;-43
2022/04/18 10:02:19;;;;;;;5.90;5.15;;;28.20;36.60;;;;;;5091265;28;20081;-42
2022/04/18 10:04:44;;;;;;;5.25;4.75;;;28.00;35.60;;;;;;5090682;28;20034;-43
2022/04/18 10:07:10;;;;;;;5.25;4.75;;;28.40;34.80;;;;;;5091184;28;20024;-44
2022/04/18 10:09:41;;;;;;;5.07;3.97;;;28.60;33.90;;;;;;5091054;28;20036;-44
2022/04/18 10:12:11;;;;;;;6.43;3.90;;;28.60;35.60;;;;;;5091014;28;20028;-45
2022/04/18 10:14:38;;;;;;;4.32;3.75;;;29.60;34.10;;;;;;5090306;28;20078;-44
2022/04/18 10:17:06;;;;;;;6.30;3.83;;;29.60;34.70;;;;;;5085091;28;20035;-42
2022/04/18 10:20:06;;;;;;;3.65;3.22;;;29.40;34.10;;;;;;5082651;28;20020;-44
2022/04/18 10:22:52;;;;;;;5.47;4.43;;;29.50;34.20;;;;;;5090327;28;20056;-42
2022/04/18 10:25:54;;;;;;;3.17;2.88;;;29.60;33.50;;;;;;5091078;28;20020;-45
2022/04/18 10:28:29;;;;;;;3.42;3.03;;;30.10;34.10;;;;;;5090598;28;20028;-43
2022/04/18 10:30:58;;;;;;;4.75;3.67;;;29.50;35.10;;;;;;5090573;28;20036;-42
2022/04/18 10:33:24;;;;;;;3.92;3.53;;;29.10;33.50;;;;;;5089828;28;20027;-44
2022/04/18 10:36:03;;;;;;;3.33;3.03;;;29.30;35.20;;;;;;5090864;28;20031;-46
2022/04/18 10:38:33;;;;;;;5.28;3.47;;;29.30;33.30;;;;;;5090306;28;20024;-42
2022/04/18 10:41:14;;;;;;;3.88;3.30;;;29.10;33.40;;;;;;5090703;28;20020;-42
2022/04/18 10:44:16;;;;;;;3.30;3.00;;;29.70;32.90;;;;;;5090223;28;20516;-42
2022/04/18 10:47:03;;;;;;;5.35;3.92;;;31.30;31.80;;;;;;5074140;28;20456;-45
2022/04/18 10:49:33;;;;;;;5.93;3.80;;;30.50;31.40;;;;;;5082438;28;20024;-42
2022/04/18 10:52:09;;;;;;;4.43;3.97;;;30.40;32.80;;;;;;5090517;28;20103;-45
2022/04/18 10:54:36;;;;;;;2.92;2.70;;;30.30;33.60;;;;;;5089649;28;20036;-43
2022/04/18 10:57:14;;;;;;;4.93;3.67;;;29.30;34.90;;;;;;5090277;28;20028;-42
2022/04/18 10:59:42;;;;;;;4.13;3.72;;;29.20;33.60;;;;;;5089859;28;20028;-44
2022/04/18 11:02:29;;;;;;;3.77;3.10;;;29.10;35.00;;;;;;5090291;28;20032;-42
2022/04/18 11:04:54;;;;;;;4.78;3.97;;;30.10;33.40;;;;;;5089387;28;20016;-43
2022/04/18 11:07:40;;;;;;;5.13;4.13;;;30.00;33.30;;;;;;5089992;28;20102;-42
2022/04/18 11:10:18;;;;;;;4.00;3.40;;;29.40;33.50;;;;;;5088764;28;20093;-43
2022/04/18 11:12:44;;;;;;;4.88;3.38;;;29.50;34.20;;;;;;5090078;28;20059;-42
2022/04/18 11:15:09;;;;;;;4.50;3.80;;;29.80;33.20;;;;;;5088076;28;20086;-43
2022/04/18 11:17:40;;;;;;;5.45;4.32;;;29.40;34.10;;;;;;5084131;28;20028;-43
2022/04/18 11:20:29;;;;;;;4.75;4.20;;;29.20;33.30;;;;;;5082616;28;20035;-43
2022/04/18 11:23:21;;;;;;;4.85;4.43;;;28.80;34.30;;;;;;5088889;28;20034;-42
2022/04/18 11:25:59;;;;;;;5.55;4.25;;;28.10;34.80;;;;;;5089548;28;20311;-42
2022/04/18 11:28:39;;;;;;;3.75;3.38;;;28.80;32.90;;;;;;5089598;28;20073;-42
2022/04/18 11:31:30;;;;;;;3.63;3.13;;;28.80;33.80;;;;;;5089783;28;20016;-43
2022/04/18 11:34:01;;;;;;;3.67;3.38;;;29.10;34.00;;;;;;5088602;28;20020;-43
2022/04/18 11:36:28;;;;;;;4.05;3.40;;;29.70;32.10;;;;;;5089321;28;20239;-43
2022/04/18 11:39:07;;;;;;;7.68;3.70;;;29.70;32.20;;;;;;5089327;28;20016;-42
2022/04/18 11:41:32;;;;;;;4.82;3.47;;;30.20;31.70;;;;;;5089551;28;20021;-42
2022/04/18 11:43:58;;;;;;;4.68;4.07;;;29.20;33.30;;;;;;5089125;28;20084;-42
2022/04/18 11:46:29;;;;;;;4.22;3.83;;;29.30;33.10;;;;;;5086658;28;20069;-43
2022/04/18 11:48:54;;;;;;;4.10;3.40;;;29.20;32.70;;;;;;5079974;28;20377;-44
2022/04/18 11:51:40;;;;;;;5.90;3.67;;;28.80;33.20;;;;;;5089115;28;20149;-40
2022/04/18 11:54:05;;;;;;;6.95;3.78;;;29.40;31.90;;;;;;5088614;28;20162;-41
2022/04/18 11:56:31;;;;;;;4.75;4.05;;;29.30;32.90;;;;;;5088846;28;20474;-42
2022/04/18 11:59:02;;;;;;;3.75;3.00;;;29.10;33.10;;;;;;5089002;28;20031;-41
2022/04/18 12:06:57;;;;;;;4.53;3.90;;;27.30;36.00;;;;;;5089673;28;20389;-42
2022/04/18 12:09:23;;;;;;;4.50;4.00;;;26.40;37.00;;;;;;5088958;28;20028;-43
2022/04/18 12:11:49;;;;;;;5.28;4.18;;;26.00;37.10;;;;;;5088792;28;20533;-43
2022/04/18 12:14:16;;;;;;;5.22;3.88;;;26.10;36.20;;;;;;5088106;28;20099;-41
2022/04/18 12:16:42;;;;;;;4.15;3.40;;;25.50;36.30;;;;;;5085099;28;20467;-43
2022/04/18 12:19:11;;;;;;;4.57;4.10;;;25.40;36.10;;;;;;5080447;28;20054;-42
2022/04/18 12:21:37;;;;;;;4.20;3.77;;;24.40;38.00;;;;;;5088768;28;20024;-41
2022/04/18 12:24:03;;;;;;;5.40;3.63;;;24.10;38.50;;;;;;5088166;28;20021;-42
2022/04/18 12:26:33;;;;;;;4.90;4.05;;;23.10;39.60;;;;;;5088825;28;20020;-42
2022/04/18 12:29:00;;;;;;;3.88;3.17;;;23.00;40.30;;;;;;5088709;28;20032;-43
2022/04/18 12:31:26;;;;;;;5.63;4.32;;;23.20;42.80;;;;;;5088662;28;20028;-42
2022/04/18 12:33:52;;;;;;;5.53;3.63;;;22.90;40.70;;;;;;5087775;28;20505;-40
2022/04/18 12:36:24;;;;;;;6.20;4.03;;;23.10;39.30;;;;;;5087229;28;20066;-41
2022/04/18 12:38:51;;;;;;;5.85;3.50;;;23.00;39.80;;;;;;5087299;28;20488;-42
2022/04/18 12:41:26;;;;;;;4.97;4.05;;;23.30;38.60;;;;;;5087327;28;20028;-41
2022/04/18 12:43:51;;;;;;;6.03;4.03;;;23.10;39.10;;;;;;5088028;28;20517;-42
2022/04/18 12:46:22;;;;;;;4.03;3.10;;;22.60;39.70;;;;;;5090207;28;20108;-41
2022/04/18 12:48:52;;;;;;;5.40;3.42;;;22.90;41.10;;;;;;5081797;28;20453;-41
2022/04/18 12:51:28;;;;;;;;;;;22.80;41.70;;;;;;5093224;28;20024;-41
2022/04/18 12:53:55;;;;;;;4.53;2.95;;;22.50;40.60;;;;;;5090615;28;19904;-42
2022/04/18 12:56:23;;;;;;;5.80;4.13;;;22.40;42.00;;;;;;5092634;28;20031;-42
2022/04/18 12:59:06;;;;;;;5.40;3.55;;;22.20;39.80;;;;;;5092753;28;20055;-41
2022/04/18 13:01:34;;;;;;;6.85;3.55;;;22.10;41.40;;;;;;5092280;28;20043;-42
2022/04/18 13:04:00;;;;;;;4.80;3.33;;;22.20;40.40;;;;;;5092062;28;20024;-43
2022/04/18 13:06:28;;;;;;;4.75;3.45;;;22.40;40.30;;;;;;5092292;28;20282;-42
2022/04/18 13:09:03;;;;;;;5.38;3.00;;;22.00;37.80;;;;;;5092226;28;20070;-41
2022/04/18 13:11:41;;;;;;;6.32;3.67;;;21.90;42.40;;;;;;5092434;28;20020;-41
2022/04/18 13:14:08;;;;;;;4.65;3.33;;;22.00;39.10;;;;;;5091652;28;20497;-42
2022/04/18 13:16:34;;;;;;;5.00;2.67;;;22.10;39.70;;;;;;5089813;28;20485;-41
2022/04/18 13:19:02;;;;;;;5.78;3.65;;;22.10;39.70;;;;;;5083125;28;20032;-42